Time;durP1;ratioP1;P1;durP2;ratioP2;P2;SDS_P1;SDS_P2;PMS_P1;PMS_P2;Temp;Humidity;BMP_temperature;BMP_pressure;BME280_temperature;BME280_humidity;BME280_pressure;Samples;Min_cycle;Max_cycle;Signal;HPM_P1;HPM_P2
2022/05/06 00:01:46;;;;;;;20.50;17.70;;;9.60;99.90;;;;;;4964450;28;20050;-77
2022/05/06 00:04:14;;;;;;;19.63;17.10;;;9.50;99.90;;;;;;4964238;28;20050;-76
2022/05/06 00:06:40;;;;;;;20.48;17.42;;;9.50;99.90;;;;;;4964459;28;20527;-77
2022/05/06 00:09:05;;;;;;;25.42;17.60;;;9.50;99.90;;;;;;4948326;28;20137;-77
2022/05/06 00:11:32;;;;;;;22.02;18.10;;;9.40;99.90;;;;;;4980677;28;20174;-77
2022/05/06 00:13:58;;;;;;;20.25;16.70;;;9.40;99.90;;;;;;4961524;28;20047;-77
2022/05/06 00:16:25;;;;;;;21.10;18.40;;;9.30;99.90;;;;;;4968627;28;20046;-76
2022/05/06 00:18:52;;;;;;;22.73;17.55;;;9.30;99.90;;;;;;4962025;28;20061;-77
2022/05/06 00:21:18;;;;;;;19.17;16.83;;;9.20;99.90;;;;;;4974886;28;20050;-77
2022/05/06 00:23:45;;;;;;;22.40;17.90;;;9.30;99.90;;;;;;4986233;28;20046;-77
2022/05/06 00:26:11;;;;;;;22.08;17.42;;;9.20;99.90;;;;;;4958312;28;20105;-77
2022/05/06 00:28:37;;;;;;;20.48;17.02;;;9.20;99.90;;;;;;4954210;28;20054;-76
2022/05/06 00:31:04;;;;;;;23.00;18.30;;;9.20;99.90;;;;;;4969907;28;20238;-76
2022/05/06 00:33:31;;;;;;;22.20;18.05;;;9.10;99.90;;;;;;4942831;28;20571;-76
2022/05/06 00:36:02;;;;;;;28.58;22.95;;;9.10;99.90;;;;;;4960438;28;20521;-76
2022/05/06 00:38:29;;;;;;;31.60;23.30;;;9.10;99.90;;;;;;4954632;28;20042;-77
2022/05/06 00:40:55;;;;;;;30.60;23.45;;;9.00;99.90;;;;;;4965711;28;20473;-77
2022/05/06 00:43:27;;;;;;;23.35;18.85;;;9.00;99.90;;;;;;4970054;28;20046;-77
2022/05/06 00:45:55;;;;;;;21.70;19.20;;;8.90;99.90;;;;;;4956426;28;20404;-77
2022/05/06 00:48:32;;;;;;;20.77;18.10;;;8.90;99.90;;;;;;4988099;28;20415;-77
2022/05/06 00:50:59;;;;;;;21.33;18.05;;;8.90;99.90;;;;;;4989383;28;20448;-77
2022/05/06 00:53:25;;;;;;;32.33;22.92;;;8.90;99.90;;;;;;4972720;28;20046;-77
2022/05/06 00:55:52;;;;;;;23.15;19.08;;;8.90;99.90;;;;;;4960067;28;20511;-77
2022/05/06 00:58:19;;;;;;;25.02;19.73;;;8.90;99.90;;;;;;4953711;28;20598;-77
2022/05/06 01:00:45;;;;;;;25.95;19.20;;;8.90;99.90;;;;;;4969312;28;20046;-77
2022/05/06 01:03:11;;;;;;;28.75;22.45;;;8.90;99.90;;;;;;4956808;28;20053;-77
2022/05/06 01:05:39;;;;;;;31.38;23.77;;;8.80;99.90;;;;;;4981453;28;20085;-77
2022/05/06 01:08:05;;;;;;;25.20;21.20;;;8.80;99.90;;;;;;4969810;28;20169;-75
2022/05/06 01:10:31;;;;;;;28.52;22.33;;;8.70;99.90;;;;;;4982151;28;20045;-75
2022/05/06 01:12:57;;;;;;;25.42;19.67;;;8.70;99.90;;;;;;4948928;28;20092;-75
2022/05/06 01:15:28;;;;;;;20.85;18.48;;;8.70;99.90;;;;;;4972736;28;20077;-76
2022/05/06 01:17:55;;;;;;;21.95;18.13;;;8.70;99.90;;;;;;4956843;28;20060;-76
2022/05/06 01:20:22;;;;;;;19.35;16.75;;;8.70;99.90;;;;;;4974261;28;20043;-76
2022/05/06 01:22:50;;;;;;;26.60;21.55;;;8.60;99.90;;;;;;4966563;28;20077;-76
2022/05/06 01:25:17;;;;;;;28.30;21.88;;;8.60;99.90;;;;;;4972101;28;20491;-77
2022/05/06 01:27:56;;;;;;;22.83;19.48;;;8.60;99.90;;;;;;4967152;28;20166;-77
2022/05/06 01:30:26;;;;;;;23.05;20.00;;;8.50;99.90;;;;;;4982220;28;20429;-77
2022/05/06 01:32:52;;;;;;;27.07;22.93;;;8.50;99.90;;;;;;4969569;28;20062;-77
2022/05/06 01:35:21;;;;;;;26.67;21.42;;;8.40;99.90;;;;;;4951961;28;20391;-77
2022/05/06 01:37:49;;;;;;;30.45;23.98;;;8.40;99.90;;;;;;4966452;28;20147;-76
2022/05/06 01:40:18;;;;;;;33.50;23.95;;;8.40;99.90;;;;;;4959211;28;20042;-77
2022/05/06 01:42:46;;;;;;;30.42;22.40;;;8.30;99.90;;;;;;4985260;28;20137;-76
2022/05/06 01:45:15;;;;;;;32.22;24.33;;;8.30;99.90;;;;;;4954019;28;20061;-77
2022/05/06 01:47:42;;;;;;;41.22;27.13;;;8.20;99.90;;;;;;4949816;28;20061;-77
2022/05/06 01:50:12;;;;;;;29.85;22.38;;;8.20;99.90;;;;;;4950259;28;20043;-77
2022/05/06 01:52:41;;;;;;;25.42;20.85;;;8.20;99.90;;;;;;4950562;28;20050;-76
2022/05/06 01:55:07;;;;;;;34.60;24.83;;;8.10;99.90;;;;;;4941825;28;20051;-77
2022/05/06 01:57:33;;;;;;;41.15;28.63;;;8.10;99.90;;;;;;4984870;28;20564;-76
2022/05/06 01:59:59;;;;;;;31.23;23.77;;;8.00;99.90;;;;;;4969039;28;20046;-77
2022/05/06 02:02:25;;;;;;;27.90;23.85;;;8.00;99.90;;;;;;4950671;28;20465;-77
2022/05/06 02:07:38;;;;;;;25.42;22.40;;;8.00;99.90;;;;;;4985728;28;20050;-76
2022/05/06 02:10:04;;;;;;;25.55;21.60;;;7.90;99.90;;;;;;4958642;28;20557;-77
2022/05/06 02:12:30;;;;;;;24.88;22.17;;;8.00;99.90;;;;;;4950742;28;20038;-77
2022/05/06 02:14:55;;;;;;;37.70;26.92;;;7.90;99.90;;;;;;4953002;28;20051;-77
2022/05/06 02:17:21;;;;;;;28.92;23.13;;;7.90;99.90;;;;;;4944523;28;20109;-76
2022/05/06 02:19:47;;;;;;;25.48;22.70;;;7.80;99.90;;;;;;4949875;28;20051;-76
2022/05/06 02:22:13;;;;;;;28.13;23.50;;;7.90;99.90;;;;;;4967094;28;20046;-76
2022/05/06 02:24:39;;;;;;;26.52;20.63;;;7.90;99.90;;;;;;4963846;28;20133;-76
2022/05/06 02:27:05;;;;;;;25.65;21.75;;;7.80;99.90;;;;;;4957579;28;20105;-75
2022/05/06 02:29:30;;;;;;;26.27;21.30;;;7.80;99.90;;;;;;4949033;28;20043;-76
2022/05/06 02:34:42;;;;;;;28.17;22.45;;;7.70;99.90;;;;;;4950957;28;20449;-76
2022/05/06 02:37:08;;;;;;;25.70;21.77;;;7.70;99.90;;;;;;4933189;28;20043;-76
2022/05/06 02:39:34;;;;;;;25.13;20.67;;;7.70;99.90;;;;;;4969333;28;20370;-76
2022/05/06 02:42:00;;;;;;;27.48;22.52;;;7.70;99.90;;;;;;4967854;28;20181;-76
2022/05/06 02:44:26;;;;;;;27.85;23.45;;;7.70;99.90;;;;;;4967947;28;20692;-76
2022/05/06 02:46:51;;;;;;;25.15;22.45;;;7.70;99.90;;;;;;4952098;28;20413;-76
2022/05/06 02:49:17;;;;;;;26.50;22.55;;;7.70;99.90;;;;;;4952675;28;20133;-76
2022/05/06 02:51:43;;;;;;;28.48;24.15;;;7.70;99.90;;;;;;4983893;28;20053;-76
2022/05/06 02:54:09;;;;;;;39.00;28.60;;;7.70;99.90;;;;;;4976772;28;20084;-76
2022/05/06 02:56:34;;;;;;;29.80;25.27;;;7.60;99.90;;;;;;4952449;28;20148;-76
2022/05/06 02:59:00;;;;;;;26.88;22.77;;;7.60;99.90;;;;;;4962895;28;20563;-76
2022/05/06 03:01:28;;;;;;;27.48;24.45;;;7.60;99.90;;;;;;4951341;28;20047;-76
2022/05/06 03:03:54;;;;;;;30.60;24.40;;;7.60;99.90;;;;;;4933062;28;20165;-76
2022/05/06 03:06:19;;;;;;;26.52;23.42;;;7.60;99.90;;;;;;4948700;28;20561;-76
2022/05/06 03:08:45;;;;;;;30.75;25.27;;;7.60;99.90;;;;;;4947412;28;20146;-76
2022/05/06 03:11:11;;;;;;;30.50;25.75;;;7.60;99.90;;;;;;4965061;28;20064;-74
2022/05/06 03:13:37;;;;;;;31.13;25.92;;;7.50;99.90;;;;;;4983126;28;20038;-75
2022/05/06 03:16:03;;;;;;;29.33;24.42;;;7.50;99.90;;;;;;4962974;28;20105;-75
2022/05/06 03:18:28;;;;;;;27.20;24.27;;;7.50;99.90;;;;;;4964946;28;20429;-75
2022/05/06 03:20:54;;;;;;;27.90;23.02;;;7.50;99.90;;;;;;4932651;28;20053;-75
2022/05/06 03:23:21;;;;;;;28.60;23.05;;;7.50;99.90;;;;;;4968539;28;20066;-75
2022/05/06 03:25:46;;;;;;;26.65;23.55;;;7.50;99.90;;;;;;4947491;28;20516;-77
2022/05/06 03:28:12;;;;;;;32.38;25.80;;;7.50;99.90;;;;;;4946193;28;20086;-74
2022/05/06 03:30:44;;;;;;;43.72;31.92;;;7.50;99.90;;;;;;4931439;28;20050;-76
2022/05/06 03:33:13;;;;;;;38.47;29.95;;;7.40;99.90;;;;;;4980101;28;20054;-76
2022/05/06 03:35:39;;;;;;;39.10;30.40;;;7.40;99.90;;;;;;4965910;28;20042;-74
2022/05/06 03:38:06;;;;;;;40.13;29.92;;;7.30;99.90;;;;;;4976233;28;20486;-74
2022/05/06 03:40:33;;;;;;;49.55;33.25;;;7.30;99.90;;;;;;4950367;28;20046;-74
2022/05/06 03:43:00;;;;;;;37.03;27.55;;;7.30;99.90;;;;;;4960518;28;20136;-75
2022/05/06 03:45:26;;;;;;;27.52;24.13;;;7.30;99.90;;;;;;4966471;28;20046;-74
2022/05/06 03:47:52;;;;;;;27.83;23.92;;;7.30;99.90;;;;;;4969307;28;20302;-75
2022/05/06 03:53:03;;;;;;;25.98;23.15;;;7.30;99.90;;;;;;4986398;28;20050;-76
2022/05/06 03:55:28;;;;;;;30.27;25.30;;;7.20;99.90;;;;;;4961890;28;20106;-76
2022/05/06 03:57:54;;;;;;;36.67;30.25;;;7.20;99.90;;;;;;4968442;28;20050;-75
2022/05/06 04:00:20;;;;;;;31.77;26.40;;;7.20;99.90;;;;;;4961700;28;20477;-75
2022/05/06 04:02:47;;;;;;;30.48;25.63;;;7.20;99.90;;;;;;4942661;28;20047;-75
2022/05/06 04:05:12;;;;;;;29.13;25.58;;;7.20;99.90;;;;;;4952723;28;20340;-75
2022/05/06 04:07:38;;;;;;;56.08;35.53;;;7.20;99.90;;;;;;4967701;28;20050;-75
2022/05/06 04:10:05;;;;;;;55.13;35.08;;;7.10;99.90;;;;;;4968053;28;20682;-74
2022/05/06 04:12:30;;;;;;;58.13;38.17;;;7.10;99.90;;;;;;4969203;28;20054;-75
2022/05/06 04:14:56;;;;;;;48.00;33.72;;;7.10;99.90;;;;;;4971707;28;20061;-75
2022/05/06 04:17:22;;;;;;;40.15;32.08;;;7.10;99.90;;;;;;4954873;28;20050;-75
2022/05/06 04:25:18;;;;;;;103.85;51.30;;;7.10;99.90;;;;;;4987280;28;20045;-75
2022/05/06 04:27:45;;;;;;;82.55;46.88;;;7.10;99.90;;;;;;4968685;28;20055;-75
2022/05/06 04:30:11;;;;;;;91.60;48.13;;;7.10;99.90;;;;;;4975406;28;20098;-75
2022/05/06 04:32:38;;;;;;;68.80;43.45;;;7.10;99.90;;;;;;4955114;28;20050;-75
2022/05/06 04:35:05;;;;;;;46.83;35.15;;;7.10;99.90;;;;;;4971129;28;20573;-75
2022/05/06 04:37:35;;;;;;;41.03;32.70;;;7.20;99.90;;;;;;4967603;28;20809;-74
2022/05/06 04:40:01;;;;;;;39.95;32.58;;;7.20;99.90;;;;;;4951988;28;20046;-75
2022/05/06 04:42:27;;;;;;;76.93;42.47;;;7.30;99.90;;;;;;4968975;28;20046;-76
2022/05/06 04:44:53;;;;;;;71.40;42.97;;;7.30;99.90;;;;;;4951367;28;20134;-75
2022/05/06 04:47:19;;;;;;;72.18;44.35;;;7.30;99.90;;;;;;4967568;28;20130;-75
2022/05/06 04:49:45;;;;;;;77.35;44.75;;;7.40;99.90;;;;;;4935298;28;20054;-75
2022/05/06 04:52:11;;;;;;;72.72;42.67;;;7.40;99.90;;;;;;4967176;28;20084;-75
2022/05/06 04:54:37;;;;;;;67.82;40.83;;;7.40;99.90;;;;;;4951451;28;20134;-75
2022/05/06 04:57:04;;;;;;;65.68;33.42;;;7.50;99.90;;;;;;4959007;28;20153;-75
2022/05/06 04:59:29;;;;;;;53.00;34.92;;;7.50;99.90;;;;;;4970027;28;20104;-76
2022/05/06 05:01:55;;;;;;;126.40;44.72;;;7.50;99.90;;;;;;4953906;28;20500;-75
2022/05/06 05:04:27;;;;;;;63.75;36.88;;;7.60;99.90;;;;;;4940339;28;20102;-73
2022/05/06 05:06:54;;;;;;;112.68;40.35;;;7.60;99.90;;;;;;4967084;28;20836;-74
2022/05/06 05:09:23;;;;;;;300.58;54.42;;;7.70;99.90;;;;;;4967739;28;20057;-74
2022/05/06 05:11:49;;;;;;;308.67;54.03;;;7.70;99.90;;;;;;4973010;28;20382;-75
2022/05/06 05:14:14;;;;;;;98.55;40.88;;;7.80;99.90;;;;;;4986885;28;20053;-75
2022/05/06 05:16:40;;;;;;;390.40;67.43;;;7.80;99.90;;;;;;4953836;28;20256;-75
2022/05/06 05:19:06;;;;;;;294.52;62.35;;;8.00;99.90;;;;;;4969625;28;20299;-75
2022/05/06 05:21:32;;;;;;;428.50;79.20;;;8.10;99.90;;;;;;4969148;28;20038;-75
2022/05/06 05:23:58;;;;;;;307.67;64.82;;;8.10;99.90;;;;;;4969572;28;20441;-76
2022/05/06 05:26:25;;;;;;;263.65;59.30;;;8.20;99.90;;;;;;4978841;28;20418;-76
2022/05/06 05:28:52;;;;;;;88.78;42.20;;;8.30;99.90;;;;;;4950397;28;20577;-76
2022/05/06 05:31:18;;;;;;;289.45;57.63;;;8.40;99.90;;;;;;4953852;28;20046;-74
2022/05/06 05:33:43;;;;;;;304.02;65.20;;;8.50;99.90;;;;;;4934810;28;20397;-74
2022/05/06 05:36:09;;;;;;;223.45;59.13;;;8.50;99.90;;;;;;4967011;28;21059;-75
2022/05/06 05:38:35;;;;;;;340.70;68.15;;;8.70;99.90;;;;;;4980804;28;20042;-74
2022/05/06 05:41:01;;;;;;;382.98;66.07;;;8.70;99.90;;;;;;4959114;28;20549;-74
2022/05/06 05:48:55;;;;;;;285.63;50.08;;;9.00;99.90;;;;;;4966403;28;20154;-74
2022/05/06 05:51:21;;;;;;;152.43;45.53;;;9.10;99.90;;;;;;4984140;28;20062;-75
2022/05/06 05:53:46;;;;;;;61.15;34.08;;;9.10;99.90;;;;;;4960039;28;20042;-75
2022/05/06 05:56:12;;;;;;;203.07;44.15;;;9.20;99.90;;;;;;4950077;28;20133;-74
2022/05/06 05:58:38;;;;;;;371.25;52.40;;;9.30;99.90;;;;;;4951072;28;20130;-74
2022/05/06 06:01:05;;;;;;;174.50;41.95;;;9.30;99.90;;;;;;4955315;28;20043;-74
2022/05/06 06:03:30;;;;;;;284.52;44.67;;;9.40;99.90;;;;;;4982330;28;20042;-74
2022/05/06 06:05:56;;;;;;;311.58;48.20;;;9.40;99.90;;;;;;4980019;28;20046;-74
2022/05/06 06:08:24;;;;;;;300.08;45.72;;;9.50;99.90;;;;;;4965337;28;20084;-72
2022/05/06 06:10:53;;;;;;;236.52;46.72;;;9.50;99.90;;;;;;4979650;28;20136;-72
2022/05/06 06:13:19;;;;;;;128.60;38.67;;;9.50;99.90;;;;;;4951159;28;20110;-73
2022/05/06 06:15:44;;;;;;;273.83;48.33;;;9.50;99.90;;;;;;4951622;28;20046;-73
2022/05/06 06:18:10;;;;;;;173.80;45.92;;;9.60;99.90;;;;;;4968911;28;20380;-73
2022/05/06 06:20:37;;;;;;;88.05;36.17;;;9.70;99.90;;;;;;4952681;28;20474;-72
2022/05/06 06:23:04;;;;;;;170.25;46.13;;;9.70;99.90;;;;;;4963453;28;20046;-73
2022/05/06 06:25:29;;;;;;;170.88;45.13;;;9.80;99.90;;;;;;4948923;28;20047;-73
2022/05/06 06:27:56;;;;;;;219.63;42.83;;;9.90;99.90;;;;;;4971487;28;20413;-73
2022/05/06 06:30:22;;;;;;;190.82;42.10;;;9.90;99.90;;;;;;4984405;28;20081;-73
2022/05/06 06:32:48;;;;;;;92.03;37.20;;;10.00;99.90;;;;;;4968615;28;20053;-74
2022/05/06 06:35:13;;;;;;;172.00;42.67;;;10.10;99.90;;;;;;4958178;28;20042;-73
2022/05/06 06:37:39;;;;;;;87.00;41.30;;;10.10;99.90;;;;;;4981360;28;20066;-73
2022/05/06 06:40:06;;;;;;;123.13;45.05;;;10.10;99.90;;;;;;4958688;28;20077;-73
2022/05/06 06:42:32;;;;;;;61.85;38.17;;;10.20;99.90;;;;;;4969796;28;20070;-73
2022/05/06 06:45:01;;;;;;;61.60;38.90;;;10.20;99.90;;;;;;4955535;28;20549;-73
2022/05/06 06:47:26;;;;;;;69.07;40.65;;;10.30;99.90;;;;;;4947781;28;20493;-73
2022/05/06 06:49:52;;;;;;;121.07;48.53;;;10.40;99.90;;;;;;4951173;28;20056;-73
2022/05/06 06:52:18;;;;;;;81.22;46.42;;;10.50;99.90;;;;;;4955488;28;20039;-73
2022/05/06 06:54:44;;;;;;;92.10;48.55;;;10.50;99.90;;;;;;4941425;28;20126;-73
2022/05/06 06:57:10;;;;;;;105.72;49.40;;;10.60;99.90;;;;;;4963288;28;20510;-73
2022/05/06 06:59:36;;;;;;;87.30;48.70;;;10.70;99.90;;;;;;4970467;28;20145;-73
2022/05/06 07:02:02;;;;;;;104.32;50.85;;;10.70;99.90;;;;;;4976210;28;20125;-73
2022/05/06 07:04:27;;;;;;;109.28;51.63;;;10.80;99.90;;;;;;4959450;28;20043;-74
2022/05/06 07:12:22;;;;;;;90.78;50.63;;;10.90;99.90;;;;;;4955833;28;20054;-72
2022/05/06 07:14:47;;;;;;;82.57;48.72;;;11.00;99.90;;;;;;4973582;28;20509;-73
2022/05/06 07:17:13;;;;;;;77.05;46.83;;;11.10;99.90;;;;;;4982925;28;20073;-73
2022/05/06 07:19:39;;;;;;;73.38;47.20;;;11.20;99.90;;;;;;4966816;28;20057;-74
2022/05/06 07:22:05;;;;;;;65.78;44.58;;;11.30;99.90;;;;;;4979698;28;20053;-72
2022/05/06 07:24:31;;;;;;;72.57;46.28;;;11.50;99.90;;;;;;4970847;28;20555;-73
2022/05/06 07:26:57;;;;;;;64.82;42.08;;;11.50;99.90;;;;;;4973348;28;20046;-72
2022/05/06 07:29:23;;;;;;;55.40;39.50;;;11.60;99.90;;;;;;4967051;28;20548;-73
2022/05/06 07:31:49;;;;;;;53.35;39.53;;;11.60;99.90;;;;;;4952818;28;20409;-73
2022/05/06 07:34:15;;;;;;;49.22;36.63;;;11.70;99.90;;;;;;4964392;28;20043;-73
2022/05/06 07:36:42;;;;;;;47.50;35.55;;;11.80;99.90;;;;;;4977372;28;20047;-73
2022/05/06 07:39:12;;;;;;;45.90;32.95;;;11.90;99.90;;;;;;4964969;28;20493;-73
2022/05/06 07:41:38;;;;;;;44.10;33.28;;;12.00;99.90;;;;;;4978246;28;20444;-73
2022/05/06 07:44:05;;;;;;;46.42;32.90;;;12.00;99.90;;;;;;4986475;28;20038;-72
2022/05/06 07:46:32;;;;;;;41.13;30.83;;;12.10;99.90;;;;;;4985736;28;20061;-73
2022/05/06 07:48:57;;;;;;;44.50;32.08;;;12.20;99.90;;;;;;4985186;28;20058;-73
2022/05/06 07:51:23;;;;;;;43.85;32.05;;;12.30;99.90;;;;;;4961382;28;20046;-71
2022/05/06 07:53:51;;;;;;;41.65;30.55;;;12.30;99.90;;;;;;4956541;28;20057;-71
2022/05/06 07:56:18;;;;;;;41.72;31.40;;;12.40;99.90;;;;;;4951986;28;20109;-73
2022/05/06 07:58:44;;;;;;;39.33;29.17;;;12.50;99.90;;;;;;4964403;28;20454;-72
2022/05/06 08:01:13;;;;;;;38.65;28.85;;;12.60;99.90;;;;;;4969656;28;20088;-73
2022/05/06 08:06:40;;;;;;;28.48;23.20;;;12.80;99.90;;;;;;4946033;28;20325;-71
2022/05/06 08:09:06;;;;;;;22.83;19.02;;;12.90;99.90;;;;;;4961129;28;20633;-72
2022/05/06 08:11:32;;;;;;;21.85;18.08;;;13.00;99.90;;;;;;4969731;28;20050;-72
2022/05/06 08:13:58;;;;;;;25.58;21.05;;;13.00;99.90;;;;;;4958760;28;20549;-72
2022/05/06 08:16:23;;;;;;;23.05;19.30;;;13.10;99.90;;;;;;4965088;28;20043;-73
2022/05/06 08:18:49;;;;;;;21.40;17.55;;;13.20;99.90;;;;;;4964893;28;20072;-73
2022/05/06 08:21:15;;;;;;;16.77;15.00;;;13.30;99.90;;;;;;4964324;28;20132;-73
2022/05/06 08:23:40;;;;;;;15.77;14.13;;;13.50;99.90;;;;;;4966664;28;20489;-72
2022/05/06 08:26:07;;;;;;;17.73;15.57;;;13.60;99.90;;;;;;4966792;28;20492;-73
2022/05/06 08:28:33;;;;;;;18.70;15.52;;;13.70;99.90;;;;;;4979896;28;20385;-73
2022/05/06 08:30:59;;;;;;;19.45;16.63;;;13.80;99.90;;;;;;4939501;28;20048;-73
2022/05/06 08:33:26;;;;;;;16.90;14.80;;;14.00;99.90;;;;;;4969788;28;20039;-73
2022/05/06 08:35:52;;;;;;;17.58;14.77;;;14.20;99.90;;;;;;4972520;28;20057;-73
2022/05/06 08:38:18;;;;;;;17.30;15.35;;;14.30;99.90;;;;;;4978720;28;20034;-73
2022/05/06 08:40:44;;;;;;;16.35;14.57;;;14.40;99.90;;;;;;4964820;28;20157;-73
2022/05/06 08:43:10;;;;;;;15.30;13.68;;;14.60;99.90;;;;;;4950717;28;20048;-73
2022/05/06 08:51:09;;;;;;;15.73;13.68;;;15.20;99.90;;;;;;4977977;28;20046;-73
2022/05/06 08:53:40;;;;;;;14.80;13.27;;;15.40;99.90;;;;;;4978702;28;20222;-72
2022/05/06 08:56:06;;;;;;;14.13;12.57;;;15.60;99.90;;;;;;4959908;28;20112;-73
2022/05/06 08:58:37;;;;;;;16.33;13.38;;;15.80;99.90;;;;;;4967508;28;20042;-72
2022/05/06 09:01:11;;;;;;;13.82;12.32;;;15.90;99.90;;;;;;4961641;28;20520;-73
2022/05/06 09:03:41;;;;;;;12.45;10.82;;;16.10;99.90;;;;;;4971734;28;20042;-74
2022/05/06 09:06:25;;;;;;;10.75;9.50;;;16.40;99.90;;;;;;4959797;28;20045;-72
2022/05/06 09:08:53;;;;;;;11.02;9.82;;;16.50;99.90;;;;;;4966449;28;20058;-72
2022/05/06 09:14:14;;;;;;;12.18;9.63;;;16.50;99.90;;;;;;4972439;28;20496;-73
2022/05/06 09:16:40;;;;;;;11.48;8.00;;;16.50;99.90;;;;;;4979086;28;20049;-72
2022/05/06 09:19:21;;;;;;;9.35;8.35;;;16.50;99.90;;;;;;4963794;28;20037;-73
2022/05/06 09:22:14;;;;;;;9.70;8.32;;;16.50;99.90;;;;;;4989883;28;20141;-72
2022/05/06 09:24:53;;;;;;;9.32;8.07;;;16.70;99.90;;;;;;4962511;28;20139;-73
2022/05/06 09:27:21;;;;;;;9.75;7.93;;;17.00;99.90;;;;;;4980600;28;20050;-73
2022/05/06 09:29:57;;;;;;;10.20;8.10;;;17.20;99.90;;;;;;4982561;28;20207;-73
2022/05/06 09:32:23;;;;;;;11.50;8.27;;;17.40;99.90;;;;;;4942159;28;20444;-73
2022/05/06 09:34:50;;;;;;;10.27;7.63;;;17.50;99.90;;;;;;4980002;28;20046;-73
2022/05/06 09:37:30;;;;;;;7.78;6.97;;;17.60;99.90;;;;;;4969927;28;20060;-72
2022/05/06 09:40:24;;;;;;;7.72;6.00;;;17.70;99.90;;;;;;4975608;28;20544;-72
2022/05/06 09:42:58;;;;;;;8.77;7.28;;;17.70;99.90;;;;;;4950089;28;20467;-73
2022/05/06 09:45:44;;;;;;;8.82;7.75;;;17.80;99.90;;;;;;4956847;28;20038;-74
2022/05/06 09:48:13;;;;;;;10.93;8.75;;;17.70;99.90;;;;;;4978281;28;20508;-73
2022/05/06 09:50:46;;;;;;;9.95;8.35;;;17.60;99.90;;;;;;4979595;28;20092;-73
2022/05/06 09:53:17;;;;;;;10.23;8.73;;;17.50;99.90;;;;;;4963310;28;20133;-74
2022/05/06 09:55:45;;;;;;;9.88;8.30;;;17.60;99.90;;;;;;4950911;28;20177;-74
2022/05/06 09:58:12;;;;;;;11.10;8.25;;;17.70;99.90;;;;;;4977707;28;20438;-73
2022/05/06 10:00:38;;;;;;;8.20;7.40;;;17.80;99.90;;;;;;4957164;28;20157;-73
2022/05/06 10:03:05;;;;;;;9.65;7.03;;;17.90;99.90;;;;;;4977392;28;20454;-74
2022/05/06 10:05:34;;;;;;;9.73;8.13;;;18.10;99.90;;;;;;4951726;28;20038;-72
2022/05/06 10:08:11;;;;;;;8.60;7.37;;;18.30;99.90;;;;;;4978847;28;20503;-72
2022/05/06 10:10:41;;;;;;;10.65;9.45;;;18.40;99.90;;;;;;4973856;28;20167;-72
2022/05/06 10:13:22;;;;;;;9.98;7.70;;;18.60;99.90;;;;;;4983020;28;20068;-73
2022/05/06 10:15:49;;;;;;;9.15;8.18;;;18.70;99.90;;;;;;4974143;28;20082;-78
2022/05/06 10:18:44;;;;;;;9.70;7.78;;;18.80;99.90;;;;;;4948961;28;20452;-78
2022/05/06 10:21:12;;;;;;;7.78;6.65;;;18.90;99.90;;;;;;4944443;28;20472;-77
2022/05/06 10:23:48;;;;;;;8.52;7.22;;;19.00;99.90;;;;;;4957359;28;20046;-77
2022/05/06 10:26:33;;;;;;;9.55;7.95;;;19.20;99.90;;;;;;4973220;28;20651;-78
2022/05/06 10:34:31;;;;;;;7.68;6.47;;;19.40;99.90;;;;;;4967046;28;20060;-73
2022/05/06 10:37:01;;;;;;;7.47;5.80;;;19.50;99.90;;;;;;4959014;28;20059;-74
2022/05/06 10:39:36;;;;;;;6.10;5.38;;;19.60;99.90;;;;;;4965320;28;20112;-73
2022/05/06 10:42:07;;;;;;;5.18;4.60;;;19.70;99.90;;;;;;4960838;28;20053;-72
2022/05/06 10:44:38;;;;;;;7.53;4.93;;;19.80;99.90;;;;;;4981960;28;20128;-73
2022/05/06 10:47:16;;;;;;;7.00;5.82;;;20.00;99.90;;;;;;4968739;28;20061;-73
2022/05/06 10:49:46;;;;;;;7.03;5.32;;;20.10;99.90;;;;;;4979622;28;20057;-72
2022/05/06 10:52:12;;;;;;;;;;;20.10;99.90;;;;;;4976149;28;20054;-72
2022/05/06 10:54:37;;;;;;;6.47;4.60;;;20.10;99.90;;;;;;4979028;28;19925;-72
2022/05/06 10:57:07;;;;;;;4.88;4.00;;;20.10;99.90;;;;;;4979929;28;20042;-73
2022/05/06 10:59:52;;;;;;;6.20;5.60;;;20.20;99.70;;;;;;4950298;28;20049;-73
2022/05/06 11:02:22;;;;;;;7.82;5.85;;;20.30;99.50;;;;;;4976095;28;20061;-73
2022/05/06 11:04:54;;;;;;;8.33;5.57;;;20.40;99.90;;;;;;4940550;28;20108;-73
2022/05/06 11:07:20;;;;;;;7.40;4.60;;;20.50;99.90;;;;;;4962801;28;20045;-73
2022/05/06 11:09:47;;;;;;;7.45;4.97;;;20.50;98.60;;;;;;4980286;28;20583;-73
2022/05/06 11:12:29;;;;;;;5.60;5.10;;;20.50;97.50;;;;;;4973472;28;20046;-74
2022/05/06 11:14:56;;;;;;;5.53;4.25;;;20.50;95.70;;;;;;4982968;28;20523;-74
2022/05/06 11:17:24;;;;;;;5.85;4.55;;;20.60;96.60;;;;;;4973892;28;20566;-73
2022/05/06 11:19:51;;;;;;;7.63;5.03;;;20.70;95.40;;;;;;4975597;28;20467;-73
2022/05/06 11:22:17;;;;;;;6.43;5.20;;;20.70;94.80;;;;;;4976934;28;20053;-73
2022/05/06 11:24:46;;;;;;;7.78;4.82;;;20.80;95.40;;;;;;4946549;28;20046;-74
2022/05/06 11:27:22;;;;;;;4.68;4.07;;;20.90;95.10;;;;;;4976534;28;20500;-75
2022/05/06 11:29:57;;;;;;;5.07;4.00;;;20.90;95.30;;;;;;4960517;28;20068;-74
2022/05/06 11:32:24;;;;;;;4.93;3.35;;;21.00;95.00;;;;;;4970578;28;20501;-73
2022/05/06 11:35:15;;;;;;;6.18;4.00;;;21.10;94.70;;;;;;4953669;28;20595;-74
2022/05/06 11:37:42;;;;;;;5.47;3.92;;;21.30;86.00;;;;;;4966595;28;20052;-74
2022/05/06 11:42:49;;;;;;;5.82;3.97;;;21.30;92.30;;;;;;4974557;28;20295;-74
2022/05/06 11:48:05;;;;;;;3.83;1.65;;;21.40;87.70;;;;;;4977634;28;20050;-74
2022/05/06 11:50:33;;;;;;;2.67;1.23;;;21.50;80.60;;;;;;4952955;28;20123;-75
2022/05/06 11:53:01;;;;;;;2.33;1.23;;;21.60;79.30;;;;;;4965822;28;20462;-74
2022/05/06 11:55:31;;;;;;;2.20;1.27;;;21.70;73.60;;;;;;4975802;28;20414;-73
2022/05/06 11:57:58;;;;;;;2.95;1.25;;;21.80;70.00;;;;;;4978691;28;20380;-74
2022/05/06 12:00:25;;;;;;;5.13;1.48;;;21.70;70.90;;;;;;4950830;28;20516;-74
2022/05/06 12:02:52;;;;;;;3.75;1.63;;;21.70;70.80;;;;;;4957513;28;20084;-74
2022/05/06 12:05:18;;;;;;;3.92;1.35;;;21.70;71.20;;;;;;4964819;28;20049;-74
2022/05/06 12:07:48;;;;;;;3.30;1.25;;;21.70;70.50;;;;;;4949490;28;20034;-74
2022/05/06 12:10:29;;;;;;;2.33;0.95;;;21.80;72.60;;;;;;4964752;28;20060;-74
2022/05/06 12:13:00;;;;;;;4.05;1.40;;;21.80;68.70;;;;;;4980765;28;20460;-74
2022/05/06 12:15:29;;;;;;;4.47;1.50;;;21.80;69.50;;;;;;4961000;28;20054;-74
2022/05/06 12:18:17;;;;;;;1.73;1.13;;;21.90;72.80;;;;;;4967862;28;20065;-75
2022/05/06 12:20:44;;;;;;;2.90;2.03;;;21.90;71.40;;;;;;4971061;28;20046;-75
2022/05/06 12:23:11;;;;;;;4.55;1.88;;;21.80;68.30;;;;;;4975111;28;20057;-76
2022/05/06 12:25:41;;;;;;;2.53;1.55;;;21.70;69.20;;;;;;4964992;28;20471;-75
2022/05/06 12:28:14;;;;;;;3.50;1.73;;;21.70;74.10;;;;;;4962193;28;20125;-75
2022/05/06 12:30:44;;;;;;;3.47;2.00;;;21.70;76.00;;;;;;4972992;28;21358;-76
2022/05/06 12:33:12;;;;;;;3.95;1.88;;;21.80;75.20;;;;;;4956969;28;20501;-74
2022/05/06 12:36:00;;;;;;;4.05;2.25;;;21.90;77.30;;;;;;4950036;28;20106;-74
2022/05/06 12:38:47;;;;;;;2.72;1.65;;;22.10;74.40;;;;;;4977116;28;20104;-75
2022/05/06 12:41:25;;;;;;;3.85;2.33;;;22.20;76.60;;;;;;4963307;28;20476;-74
2022/05/06 12:43:57;;;;;;;5.35;1.95;;;22.30;75.50;;;;;;4971444;28;20055;-75
2022/05/06 12:46:34;;;;;;;3.28;2.03;;;22.40;77.00;;;;;;4966280;28;20076;-75
2022/05/06 12:51:46;;;;;;;5.57;2.35;;;22.50;74.40;;;;;;4972786;28;20121;-75
2022/05/06 12:54:12;;;;;;;5.20;2.55;;;22.50;72.50;;;;;;4981025;28;20485;-75
2022/05/06 12:56:39;;;;;;;4.65;2.50;;;22.40;73.10;;;;;;4964633;28;20116;-75
2022/05/06 12:59:06;;;;;;;5.88;2.50;;;22.20;74.70;;;;;;4961333;28;20058;-74
2022/05/06 13:01:32;;;;;;;5.88;1.77;;;22.20;76.90;;;;;;4981955;28;20051;-74
2022/05/06 13:03:58;;;;;;;4.32;2.10;;;22.30;78.00;;;;;;4978659;28;20058;-74
2022/05/06 13:06:25;;;;;;;3.72;1.80;;;22.50;76.70;;;;;;4977652;28;20102;-75
2022/05/06 13:08:50;;;;;;;5.60;2.40;;;22.70;69.40;;;;;;4973114;28;20106;-73
2022/05/06 13:11:17;;;;;;;4.68;1.83;;;22.70;68.40;;;;;;4959055;28;20082;-73
2022/05/06 13:13:42;;;;;;;3.58;1.75;;;22.80;71.80;;;;;;4951828;28;20042;-75
2022/05/06 13:16:09;;;;;;;5.10;1.90;;;22.90;69.50;;;;;;4966406;28;20042;-75
2022/05/06 13:18:35;;;;;;;4.35;1.90;;;22.90;62.40;;;;;;4964168;28;20050;-75
2022/05/06 13:21:01;;;;;;;3.83;2.00;;;22.70;63.30;;;;;;4967027;28;20386;-74
2022/05/06 13:23:27;;;;;;;3.58;1.85;;;22.60;67.50;;;;;;4976943;28;20046;-74
2022/05/06 13:25:53;;;;;;;5.05;2.08;;;22.60;69.30;;;;;;4944960;28;20049;-75
2022/05/06 13:28:19;;;;;;;2.63;1.92;;;22.60;69.30;;;;;;4971648;28;20547;-75
2022/05/06 13:30:44;;;;;;;3.88;1.60;;;22.70;71.40;;;;;;4960421;28;20110;-76
2022/05/06 13:33:10;;;;;;;4.22;1.70;;;22.90;75.70;;;;;;4950179;28;20052;-75